Time;durP1;ratioP1;P1;durP2;ratioP2;P2;SDS_P1;SDS_P2;PMS_P1;PMS_P2;Temp;Humidity;BMP_temperature;BMP_pressure;BME280_temperature;BME280_humidity;BME280_pressure;Samples;Min_cycle;Max_cycle;Signal;HPM_P1;HPM_P2
2023/06/20 00:01:55;;;;;;;6.95;6.30;;;;;;;;;;4904820;29;20056;-81
2023/06/20 00:04:22;;;;;;;6.97;6.38;;;;;;;;;;4901856;29;20463;-82
2023/06/20 00:06:49;;;;;;;7.60;6.90;;;;;;;;;;4902582;29;20056;-82
2023/06/20 00:09:17;;;;;;;6.93;6.32;;;;;;;;;;4899640;29;20495;-82
2023/06/20 00:11:44;;;;;;;6.78;6.10;;;;;;;;;;4896723;29;20064;-82
2023/06/20 00:14:12;;;;;;;6.53;6.03;;;;;;;;;;4897907;29;20474;-82
2023/06/20 00:16:40;;;;;;;6.63;6.13;;;;;;;;;;4901458;29;20052;-82
2023/06/20 00:19:08;;;;;;;6.50;6.00;;;;;;;;;;4896459;29;20415;-82
2023/06/20 00:21:39;;;;;;;6.13;5.55;;;;;;;;;;4898916;29;20060;-82
2023/06/20 00:24:10;;;;;;;5.70;5.20;;;;;;;;;;4895994;29;20103;-82
2023/06/20 00:26:38;;;;;;;6.32;5.82;;;;;;;;;;4896690;29;20088;-82
2023/06/20 00:29:05;;;;;;;6.45;5.95;;;;;;;;;;4905335;29;20100;-81
2023/06/20 00:31:34;;;;;;;6.97;6.40;;;;;;;;;;4915778;29;20082;-82
2023/06/20 00:34:02;;;;;;;6.95;6.40;;;;;;;;;;4896299;29;20804;-81
2023/06/20 00:36:29;;;;;;;7.13;6.53;;;;;;;;;;4910157;29;20131;-81
2023/06/20 00:38:56;;;;;;;6.60;6.00;;;;;;;;;;4897952;29;20119;-81
2023/06/20 00:41:24;;;;;;;6.97;6.47;;;;;;;;;;4903916;29;20073;-82
2023/06/20 00:43:51;;;;;;;7.10;6.50;;;;;;;;;;4898696;29;20055;-81
2023/06/20 00:46:23;;;;;;;7.50;6.90;;;;;;;;;;4913770;29;20092;-82
2023/06/20 00:48:54;;;;;;;7.18;6.57;;;;;;;;;;4917825;29;20048;-81
2023/06/20 00:51:22;;;;;;;7.32;6.78;;;;;;;;;;4912697;29;20519;-81
2023/06/20 00:53:49;;;;;;;7.53;6.93;;;;;;;;;;4901204;29;20132;-81
2023/06/20 00:56:18;;;;;;;5.80;5.40;;;;;;;;;;4902854;29;20044;-81
2023/06/20 00:58:45;;;;;;;5.63;5.22;;;;;;;;;;4922099;29;20044;-81
2023/06/20 01:01:16;;;;;;;5.60;5.20;;;;;;;;;;4908263;29;20048;-81
2023/06/20 01:03:46;;;;;;;6.25;5.75;;;;;;;;;;4921697;29;20101;-81
2023/06/20 01:06:23;;;;;;;6.72;6.07;;;;;;;;;;4893716;29;20108;-81
2023/06/20 01:08:50;;;;;;;6.78;6.28;;;;;;;;;;4910667;29;20045;-81
2023/06/20 01:11:23;;;;;;;7.53;6.82;;;;;;;;;;4907603;29;20055;-81
2023/06/20 01:14:04;;;;;;;6.18;5.68;;;;;;;;;;4897082;29;20040;-81
2023/06/20 01:16:37;;;;;;;7.20;6.43;;;;;;;;;;4906447;29;20076;-81
2023/06/20 01:19:15;;;;;;;7.15;6.55;;;;;;;;;;4899743;29;20064;-82
2023/06/20 01:21:45;;;;;;;7.15;6.55;;;;;;;;;;4897507;29;20132;-81
2023/06/20 01:24:15;;;;;;;7.63;7.00;;;;;;;;;;4900644;29;20048;-82
2023/06/20 01:26:45;;;;;;;8.18;7.45;;;;;;;;;;4899775;29;20422;-82
2023/06/20 01:29:27;;;;;;;7.35;6.75;;;;;;;;;;4892914;29;20084;-82
2023/06/20 01:31:56;;;;;;;7.85;7.05;;;;;;;;;;4898050;29;20498;-82
2023/06/20 01:34:27;;;;;;;6.75;6.15;;;;;;;;;;4900569;29;20052;-81
2023/06/20 01:36:57;;;;;;;6.60;6.00;;;;;;;;;;4911448;29;20558;-82
2023/06/20 01:39:28;;;;;;;6.20;5.70;;;;;;;;;;4897483;29;20303;-82
2023/06/20 01:41:58;;;;;;;6.32;5.82;;;;;;;;;;4921163;29;20134;-82
2023/06/20 01:44:27;;;;;;;6.97;6.38;;;;;;;;;;4893694;29;20052;-82
2023/06/20 01:46:56;;;;;;;7.10;6.50;;;;;;;;;;4909360;29;20098;-82
2023/06/20 01:49:25;;;;;;;6.82;6.28;;;;;;;;;;4894099;29;20048;-82
2023/06/20 01:51:55;;;;;;;6.68;6.13;;;;;;;;;;4901355;29;20040;-82
2023/06/20 01:54:25;;;;;;;7.70;7.00;;;;;;;;;;4913966;29;20076;-82
2023/06/20 01:56:52;;;;;;;7.28;6.68;;;;;;;;;;4900286;29;20124;-81
2023/06/20 01:59:20;;;;;;;7.22;6.63;;;;;;;;;;4913357;29;20097;-82
2023/06/20 02:01:48;;;;;;;7.25;6.65;;;;;;;;;;4913675;29;20088;-82
2023/06/20 02:04:17;;;;;;;7.30;6.70;;;;;;;;;;4898311;29;20057;-81
2023/06/20 02:06:46;;;;;;;6.72;6.22;;;;;;;;;;4912063;29;20040;-81
2023/06/20 02:09:16;;;;;;;7.50;6.90;;;;;;;;;;4918646;29;20065;-81
2023/06/20 02:11:47;;;;;;;6.88;6.28;;;;;;;;;;4911365;29;20084;-82
2023/06/20 02:14:15;;;;;;;7.40;6.80;;;;;;;;;;4900034;29;20627;-82
2023/06/20 02:16:43;;;;;;;7.15;6.55;;;;;;;;;;4918802;29;20045;-82
2023/06/20 02:19:10;;;;;;;7.20;6.60;;;;;;;;;;4898403;29;20238;-81
2023/06/20 02:21:40;;;;;;;7.13;6.53;;;;;;;;;;4898648;29;20434;-82
2023/06/20 02:24:10;;;;;;;6.53;5.93;;;;;;;;;;4891884;29;20044;-81
2023/06/20 02:26:40;;;;;;;7.03;6.50;;;;;;;;;;4915948;29;20081;-82
2023/06/20 02:29:08;;;;;;;6.80;6.20;;;;;;;;;;4890620;29;20131;-82
2023/06/20 02:31:39;;;;;;;6.90;6.32;;;;;;;;;;4896146;29;20083;-83
2023/06/20 02:34:07;;;;;;;6.95;6.45;;;;;;;;;;4903561;29;20048;-82
2023/06/20 02:36:35;;;;;;;6.70;6.20;;;;;;;;;;4916569;29;20041;-82
2023/06/20 02:39:06;;;;;;;6.93;6.35;;;;;;;;;;4897739;29;20052;-82
2023/06/20 02:41:41;;;;;;;7.75;6.30;;;;;;;;;;4909502;29;20071;-83
2023/06/20 02:44:09;;;;;;;7.32;6.38;;;;;;;;;;4895241;29;20055;-83
2023/06/20 02:46:56;;;;;;;7.28;6.68;;;;;;;;;;4904545;29;20104;-84
2023/06/20 02:49:44;;;;;;;8.52;6.68;;;;;;;;;;4905333;29;20040;-82
2023/06/20 02:52:23;;;;;;;6.93;6.32;;;;;;;;;;4900856;29;20750;-82
2023/06/20 02:55:06;;;;;;;7.85;7.22;;;;;;;;;;4900627;29;20532;-82
2023/06/20 02:57:34;;;;;;;6.30;5.80;;;;;;;;;;4909397;29;20096;-81
2023/06/20 03:00:09;;;;;;;7.20;6.60;;;;;;;;;;4908723;29;20080;-82
2023/06/20 03:02:44;;;;;;;6.90;6.30;;;;;;;;;;4899805;29;20052;-81
2023/06/20 03:05:15;;;;;;;7.20;6.60;;;;;;;;;;4900284;29;20132;-82
2023/06/20 03:07:42;;;;;;;6.70;6.20;;;;;;;;;;4919748;29;20574;-82
2023/06/20 03:10:11;;;;;;;6.85;6.28;;;;;;;;;;4924487;29;20045;-82
2023/06/20 03:12:38;;;;;;;6.68;6.18;;;;;;;;;;4918765;29;20092;-82
2023/06/20 03:15:06;;;;;;;7.72;6.88;;;;;;;;;;4894062;29;20052;-82
2023/06/20 03:17:39;;;;;;;7.10;6.50;;;;;;;;;;4899557;29;20047;-82
2023/06/20 03:20:09;;;;;;;6.70;6.18;;;;;;;;;;4898768;29;21990;-82
2023/06/20 03:22:37;;;;;;;6.38;5.88;;;;;;;;;;4911967;29;20139;-82
2023/06/20 03:25:05;;;;;;;6.90;6.40;;;;;;;;;;4911686;29;20148;-82
2023/06/20 03:27:33;;;;;;;7.55;6.85;;;;;;;;;;4912485;29;20044;-82
2023/06/20 03:30:03;;;;;;;7.30;6.70;;;;;;;;;;4914634;29;20866;-82
2023/06/20 03:32:34;;;;;;;7.45;6.88;;;;;;;;;;4895697;29;20048;-82
2023/06/20 03:35:03;;;;;;;6.78;6.28;;;;;;;;;;4901716;29;20124;-83
2023/06/20 03:37:31;;;;;;;7.22;6.55;;;;;;;;;;4915658;29;20058;-83
2023/06/20 03:39:58;;;;;;;7.63;6.90;;;;;;;;;;4913173;29;20112;-84
2023/06/20 03:42:26;;;;;;;7.55;6.88;;;;;;;;;;4896358;29;20057;-83
2023/06/20 03:44:53;;;;;;;7.43;6.80;;;;;;;;;;4916524;29;20048;-82
2023/06/20 03:47:21;;;;;;;6.97;6.47;;;;;;;;;;4900937;29;20048;-83
2023/06/20 03:49:48;;;;;;;7.25;6.65;;;;;;;;;;4898233;29;20214;-83
2023/06/20 03:52:16;;;;;;;6.47;5.97;;;;;;;;;;4912307;29;20072;-82
2023/06/20 03:54:43;;;;;;;5.90;5.50;;;;;;;;;;4913591;29;20052;-82
2023/06/20 03:57:10;;;;;;;6.25;5.75;;;;;;;;;;4918515;29;20131;-82
2023/06/20 03:59:38;;;;;;;5.90;5.50;;;;;;;;;;4915776;29;20107;-83
2023/06/20 04:02:05;;;;;;;6.97;6.38;;;;;;;;;;4903731;29;20135;-83
2023/06/20 04:04:32;;;;;;;6.30;5.80;;;;;;;;;;4899030;29;20044;-82
2023/06/20 04:07:00;;;;;;;6.75;6.15;;;;;;;;;;4901308;29;20132;-82
2023/06/20 04:09:27;;;;;;;6.38;5.88;;;;;;;;;;4912689;29;20147;-83
2023/06/20 04:11:55;;;;;;;6.10;5.70;;;;;;;;;;4897590;29;20053;-82
2023/06/20 04:14:22;;;;;;;6.05;5.57;;;;;;;;;;4898864;29;20048;-82
2023/06/20 04:16:50;;;;;;;6.70;6.20;;;;;;;;;;4902730;29;20061;-82
2023/06/20 04:19:18;;;;;;;5.90;5.50;;;;;;;;;;4896655;29;20590;-82
2023/06/20 04:21:46;;;;;;;6.85;6.20;;;;;;;;;;4912107;29;20054;-81
2023/06/20 04:24:13;;;;;;;6.32;5.85;;;;;;;;;;4905035;29;20053;-82
2023/06/20 04:26:42;;;;;;;6.07;5.68;;;;;;;;;;4909356;29;20056;-82
2023/06/20 04:29:09;;;;;;;6.55;6.05;;;;;;;;;;4906525;29;20115;-82
2023/06/20 04:31:38;;;;;;;6.60;6.07;;;;;;;;;;4909461;29;20052;-83
2023/06/20 04:34:05;;;;;;;7.03;6.35;;;;;;;;;;4891932;29;20123;-82
2023/06/20 04:36:34;;;;;;;7.00;6.50;;;;;;;;;;4915545;29;20138;-82
2023/06/20 04:39:04;;;;;;;7.10;6.50;;;;;;;;;;4907847;29;20515;-83
2023/06/20 04:41:33;;;;;;;6.43;5.93;;;;;;;;;;4908251;29;20045;-82
2023/06/20 04:44:00;;;;;;;7.35;6.75;;;;;;;;;;4923454;29;20045;-81
2023/06/20 04:46:28;;;;;;;7.30;6.70;;;;;;;;;;4933687;29;20092;-81
2023/06/20 04:48:55;;;;;;;6.50;5.90;;;;;;;;;;4915732;29;20061;-81
2023/06/20 04:51:22;;;;;;;6.70;6.20;;;;;;;;;;4921731;29;20065;-82
2023/06/20 04:53:53;;;;;;;7.03;6.43;;;;;;;;;;4906077;29;20064;-82
2023/06/20 04:56:22;;;;;;;6.30;5.85;;;;;;;;;;4900786;29;20052;-81
2023/06/20 04:58:50;;;;;;;6.78;6.28;;;;;;;;;;4896737;29;20048;-82
2023/06/20 05:01:18;;;;;;;6.55;6.05;;;;;;;;;;4894594;29;20044;-82
2023/06/20 05:03:46;;;;;;;6.60;6.10;;;;;;;;;;4910607;29;20040;-82
2023/06/20 05:06:19;;;;;;;6.35;5.85;;;;;;;;;;4907275;29;20044;-82
2023/06/20 05:08:47;;;;;;;6.55;6.05;;;;;;;;;;4914204;29;20053;-82
2023/06/20 05:11:15;;;;;;;6.97;6.47;;;;;;;;;;4912125;29;20052;-82
2023/06/20 05:13:42;;;;;;;7.47;6.88;;;;;;;;;;4898416;29;20115;-82
2023/06/20 05:16:09;;;;;;;7.90;7.28;;;;;;;;;;4899484;29;20051;-82
2023/06/20 05:18:37;;;;;;;7.40;6.80;;;;;;;;;;4898677;29;20534;-82
2023/06/20 05:21:07;;;;;;;6.97;6.38;;;;;;;;;;4902472;29;20072;-82
2023/06/20 05:23:34;;;;;;;7.47;6.88;;;;;;;;;;4899748;29;20049;-82
2023/06/20 05:26:03;;;;;;;8.60;7.90;;;;;;;;;;4900690;29;20543;-81
2023/06/20 05:28:30;;;;;;;7.72;7.13;;;;;;;;;;4899103;29;20064;-82
2023/06/20 05:30:58;;;;;;;6.55;6.05;;;;;;;;;;4896859;29;20701;-82
2023/06/20 05:33:25;;;;;;;6.93;6.38;;;;;;;;;;4896598;29;20058;-81
2023/06/20 05:35:53;;;;;;;6.60;6.10;;;;;;;;;;4900028;29;20044;-82
2023/06/20 05:38:20;;;;;;;6.55;6.05;;;;;;;;;;4900662;29;20119;-82
2023/06/20 05:40:48;;;;;;;6.60;6.00;;;;;;;;;;4899123;29;20076;-82
2023/06/20 05:43:15;;;;;;;9.65;6.72;;;;;;;;;;4895836;29;20045;-82
2023/06/20 05:45:43;;;;;;;6.65;6.15;;;;;;;;;;4903187;29;20095;-82
2023/06/20 05:48:11;;;;;;;7.00;6.40;;;;;;;;;;4901082;29;20056;-82
2023/06/20 05:50:38;;;;;;;6.28;5.80;;;;;;;;;;4901263;29;20569;-82
2023/06/20 05:53:07;;;;;;;7.82;7.22;;;;;;;;;;4897555;29;20116;-81
2023/06/20 05:55:34;;;;;;;7.47;6.65;;;;;;;;;;4897510;29;20045;-80
2023/06/20 05:58:02;;;;;;;7.43;6.80;;;;;;;;;;4901226;29;20148;-81
2023/06/20 06:00:29;;;;;;;6.75;6.25;;;;;;;;;;4917520;29;20048;-81
2023/06/20 06:02:57;;;;;;;7.10;6.60;;;;;;;;;;4907475;29;20579;-81
2023/06/20 06:05:24;;;;;;;6.40;5.90;;;;;;;;;;4898252;29;20059;-81
2023/06/20 06:07:52;;;;;;;6.60;6.10;;;;;;;;;;4901395;29;20128;-81
2023/06/20 06:10:20;;;;;;;6.25;5.75;;;;;;;;;;4898511;29;20505;-82
2023/06/20 06:12:47;;;;;;;6.07;5.57;;;;;;;;;;4900983;29;20045;-81
2023/06/20 06:15:15;;;;;;;6.82;6.32;;;;;;;;;;4900654;29;20052;-81
2023/06/20 06:17:43;;;;;;;6.75;6.25;;;;;;;;;;4898771;29;20480;-81
2023/06/20 06:20:14;;;;;;;6.65;6.15;;;;;;;;;;4904115;29;20159;-81
2023/06/20 06:22:42;;;;;;;6.72;6.22;;;;;;;;;;4903014;29;20057;-81
2023/06/20 06:25:09;;;;;;;6.50;6.00;;;;;;;;;;4901858;29;20055;-82
2023/06/20 06:27:42;;;;;;;8.25;7.60;;;;;;;;;;4897650;29;20120;-81
2023/06/20 06:30:15;;;;;;;8.93;8.13;;;;;;;;;;4891367;29;20045;-81
2023/06/20 06:32:44;;;;;;;8.45;7.72;;;;;;;;;;4892075;29;20112;-82
2023/06/20 06:35:12;;;;;;;8.13;7.43;;;;;;;;;;4903197;29;20067;-81
2023/06/20 06:37:40;;;;;;;8.60;7.85;;;;;;;;;;4897923;29;20052;-80
2023/06/20 06:40:11;;;;;;;7.63;7.03;;;;;;;;;;4899764;29;20049;-81
2023/06/20 06:42:39;;;;;;;7.80;7.18;;;;;;;;;;4901840;29;20040;-80
2023/06/20 06:45:08;;;;;;;6.53;6.03;;;;;;;;;;4925720;29;20068;-81
2023/06/20 06:47:35;;;;;;;6.07;5.57;;;;;;;;;;4908802;29;20100;-81
2023/06/20 06:50:03;;;;;;;5.95;5.55;;;;;;;;;;4891954;29;20515;-80
2023/06/20 06:52:32;;;;;;;6.45;5.95;;;;;;;;;;4896817;29;20080;-80
2023/06/20 06:55:00;;;;;;;7.20;6.60;;;;;;;;;;4901357;29;20104;-80
2023/06/20 06:57:27;;;;;;;6.45;5.95;;;;;;;;;;4902848;29;20113;-81
2023/06/20 06:59:54;;;;;;;5.90;5.40;;;;;;;;;;4900354;29;20044;-81
2023/06/20 07:02:22;;;;;;;7.35;5.97;;;;;;;;;;4896051;29;20108;-81
2023/06/20 07:04:49;;;;;;;6.32;5.82;;;;;;;;;;4895892;29;20052;-82
2023/06/20 07:07:17;;;;;;;6.45;5.95;;;;;;;;;;4901958;29;20218;-81
2023/06/20 07:09:44;;;;;;;5.88;5.45;;;;;;;;;;4893574;29;20064;-81
2023/06/20 07:12:13;;;;;;;5.80;5.40;;;;;;;;;;4911834;29;20053;-81
2023/06/20 07:14:41;;;;;;;6.18;5.68;;;;;;;;;;4898982;29;20120;-81
2023/06/20 07:17:08;;;;;;;4.97;4.65;;;;;;;;;;4900853;29;20050;-81
2023/06/20 07:19:35;;;;;;;5.18;4.78;;;;;;;;;;4898677;29;20606;-81
2023/06/20 07:22:03;;;;;;;5.85;5.20;;;;;;;;;;4911941;29;20049;-81
2023/06/20 07:24:30;;;;;;;5.63;5.22;;;;;;;;;;4897108;29;20079;-80
2023/06/20 07:27:01;;;;;;;6.35;5.85;;;;;;;;;;4899949;29;20071;-81
2023/06/20 07:29:28;;;;;;;6.55;6.05;;;;;;;;;;4901097;29;20131;-81
2023/06/20 07:31:55;;;;;;;6.28;5.78;;;;;;;;;;4902930;29;20061;-82
2023/06/20 07:34:23;;;;;;;5.85;5.45;;;;;;;;;;4899563;29;20060;-82
2023/06/20 07:36:50;;;;;;;5.88;5.38;;;;;;;;;;4900388;29;20144;-81
2023/06/20 07:39:18;;;;;;;5.00;4.70;;;;;;;;;;4897892;29;20160;-81
2023/06/20 07:41:45;;;;;;;6.05;5.47;;;;;;;;;;4898257;29;20059;-81
2023/06/20 07:44:13;;;;;;;6.45;5.95;;;;;;;;;;4896283;29;20060;-81
2023/06/20 07:46:40;;;;;;;5.18;4.78;;;;;;;;;;4898015;29;20479;-82
2023/06/20 07:49:07;;;;;;;6.05;5.57;;;;;;;;;;4899632;29;20163;-84
2023/06/20 07:51:36;;;;;;;4.68;4.38;;;;;;;;;;4888314;29;20057;-81
2023/06/20 07:54:06;;;;;;;6.20;5.70;;;;;;;;;;4887871;29;20107;-80
2023/06/20 07:56:34;;;;;;;5.00;4.70;;;;;;;;;;4903268;29;20088;-81
2023/06/20 07:59:02;;;;;;;5.20;4.78;;;;;;;;;;4894322;29;20096;-82
2023/06/20 08:01:30;;;;;;;4.50;4.20;;;;;;;;;;4911927;29;20053;-83
2023/06/20 08:03:57;;;;;;;4.95;4.55;;;;;;;;;;4894106;29;20066;-83
2023/06/20 08:06:25;;;;;;;5.40;5.00;;;;;;;;;;4895031;29;20044;-82
2023/06/20 08:08:52;;;;;;;4.80;4.50;;;;;;;;;;4897304;29;20041;-82
2023/06/20 08:11:23;;;;;;;6.32;5.72;;;;;;;;;;4897323;29;20737;-82
2023/06/20 08:13:51;;;;;;;5.77;5.37;;;;;;;;;;4895756;29;20074;-83
2023/06/20 08:16:18;;;;;;;4.60;4.30;;;;;;;;;;4894910;29;20096;-83
2023/06/20 08:18:46;;;;;;;7.05;6.45;;;;;;;;;;4899171;29;20770;-84
2023/06/20 08:21:13;;;;;;;5.20;4.80;;;;;;;;;;4897047;29;20059;-84
2023/06/20 08:23:40;;;;;;;6.38;5.78;;;;;;;;;;4898898;29;20048;-83
2023/06/20 08:26:08;;;;;;;5.00;4.70;;;;;;;;;;4895432;29;20048;-84
2023/06/20 08:28:35;;;;;;;4.68;4.38;;;;;;;;;;4911338;29;20045;-83
2023/06/20 08:31:04;;;;;;;6.00;5.50;;;;;;;;;;4911477;29;20051;-85
2023/06/20 08:33:31;;;;;;;4.60;4.30;;;;;;;;;;4895512;29;20052;-83
2023/06/20 08:35:59;;;;;;;6.05;5.55;;;;;;;;;;4907999;29;20074;-84
2023/06/20 08:38:26;;;;;;;6.35;5.85;;;;;;;;;;4895095;29;20159;-83
2023/06/20 08:40:53;;;;;;;5.70;5.30;;;;;;;;;;4911670;29;20127;-83
2023/06/20 08:43:21;;;;;;;4.32;3.92;;;;;;;;;;4915570;29;20145;-82
2023/06/20 08:45:48;;;;;;;4.43;4.13;;;;;;;;;;4897432;29;20132;-82
2023/06/20 08:48:16;;;;;;;5.72;5.32;;;;;;;;;;4892392;29;20044;-84
2023/06/20 08:50:47;;;;;;;5.00;4.70;;;;;;;;;;4894995;29;20048;-81
2023/06/20 08:53:15;;;;;;;4.88;4.57;;;;;;;;;;4899224;29;20036;-83
2023/06/20 08:55:43;;;;;;;3.90;3.70;;;;;;;;;;4896040;29;20587;-83
2023/06/20 08:58:11;;;;;;;4.30;4.00;;;;;;;;;;4895796;29;20037;-83
2023/06/20 09:00:45;;;;;;;4.40;4.10;;;;;;;;;;4897414;29;20045;-84
2023/06/20 09:03:13;;;;;;;4.80;4.28;;;;;;;;;;4898347;29;20059;-85
2023/06/20 09:05:42;;;;;;;5.70;5.20;;;;;;;;;;4895750;29;20052;-84
2023/06/20 09:08:14;;;;;;;4.78;4.47;;;;;;;;;;4896371;29;20080;-83
2023/06/20 09:10:42;;;;;;;4.30;4.00;;;;;;;;;;4896625;29;20059;-80
2023/06/20 09:13:11;;;;;;;4.32;4.03;;;;;;;;;;4900892;29;20509;-81
2023/06/20 09:15:38;;;;;;;4.40;4.00;;;;;;;;;;4896494;29;20503;-81
2023/06/20 09:18:06;;;;;;;4.82;3.95;;;;;;;;;;4898194;29;20806;-81
2023/06/20 09:20:35;;;;;;;4.90;4.50;;;;;;;;;;4896917;29;20669;-82
2023/06/20 09:23:02;;;;;;;4.82;4.53;;;;;;;;;;4913219;29;20044;-83
2023/06/20 09:25:30;;;;;;;4.95;4.45;;;;;;;;;;4896575;29;20164;-83
2023/06/20 09:27:58;;;;;;;4.53;4.22;;;;;;;;;;4900265;29;20072;-82
2023/06/20 09:30:30;;;;;;;4.85;4.45;;;;;;;;;;4896841;29;20116;-82
2023/06/20 09:33:04;;;;;;;4.63;4.32;;;;;;;;;;4895114;29;20396;-83
2023/06/20 09:35:32;;;;;;;4.95;4.57;;;;;;;;;;4897799;29;20570;-84
2023/06/20 09:38:03;;;;;;;4.20;3.90;;;;;;;;;;4898463;29;20055;-83
2023/06/20 09:40:30;;;;;;;;;;;;;;;;;;4896049;29;20132;-84
2023/06/20 09:42:58;;;;;;;4.50;4.20;;;;;;;;;;4898563;29;20515;-83
2023/06/20 09:45:25;;;;;;;3.38;3.17;;;;;;;;;;4889204;29;20056;-84
2023/06/20 09:47:53;;;;;;;4.05;3.75;;;;;;;;;;4906332;29;20104;-83
2023/06/20 09:50:21;;;;;;;3.70;3.50;;;;;;;;;;4898041;29;20082;-84
2023/06/20 09:53:13;;;;;;;4.28;3.97;;;;;;;;;;4908872;29;20086;-82
2023/06/20 09:55:40;;;;;;;;;;;;;;;;;;4898163;29;20071;-81
2023/06/20 09:58:08;;;;;;;4.82;4.40;;;;;;;;;;4893298;29;20413;-83
2023/06/20 10:00:36;;;;;;;3.65;3.38;;;;;;;;;;4899790;29;20104;-82
2023/06/20 10:03:07;;;;;;;3.88;3.67;;;;;;;;;;4894874;29;20547;-83
2023/06/20 10:05:35;;;;;;;4.20;3.90;;;;;;;;;;4894452;29;20112;-83
2023/06/20 10:08:03;;;;;;;3.45;3.25;;;;;;;;;;4894030;29;20045;-81
2023/06/20 10:10:31;;;;;;;3.85;3.65;;;;;;;;;;4895982;29;20515;-82
2023/06/20 10:13:03;;;;;;;3.30;3.10;;;;;;;;;;4910417;29;20040;-83
2023/06/20 10:15:31;;;;;;;2.78;2.67;;;;;;;;;;4895355;29;20063;-84
2023/06/20 10:17:58;;;;;;;3.50;3.30;;;;;;;;;;4896487;29;20091;-82
2023/06/20 10:20:27;;;;;;;3.00;2.80;;;;;;;;;;4895927;29;20095;-82
2023/06/20 10:22:59;;;;;;;2.78;2.67;;;;;;;;;;4909104;29;20104;-82
2023/06/20 10:25:27;;;;;;;3.10;3.00;;;;;;;;;;4894247;29;20052;-83
2023/06/20 10:27:56;;;;;;;4.72;3.00;;;;;;;;;;4895230;29;20048;-82
2023/06/20 10:30:42;;;;;;;3.08;2.97;;;;;;;;;;4895447;29;20048;-83
2023/06/20 10:33:10;;;;;;;3.05;2.85;;;;;;;;;;4904164;29;20053;-81
2023/06/20 10:35:48;;;;;;;2.88;2.40;;;;;;;;;;4898106;29;20052;-82
2023/06/20 10:38:16;;;;;;;2.67;2.55;;;;;;;;;;4896033;29;20100;-83
2023/06/20 10:40:44;;;;;;;2.70;2.50;;;;;;;;;;4893418;29;20040;-84
2023/06/20 10:43:18;;;;;;;3.00;2.60;;;;;;;;;;4894290;29;20427;-83
2023/06/20 10:45:53;;;;;;;2.95;2.75;;;;;;;;;;4891863;29;20056;-81
2023/06/20 10:48:20;;;;;;;2.75;2.65;;;;;;;;;;4895818;29;20535;-83
2023/06/20 10:50:48;;;;;;;2.40;2.30;;;;;;;;;;4895757;29;20061;-82
2023/06/20 10:53:16;;;;;;;2.92;2.72;;;;;;;;;;4894419;29;20120;-83
2023/06/20 10:55:43;;;;;;;2.72;2.63;;;;;;;;;;4894454;29;21307;-83
2023/06/20 10:58:13;;;;;;;2.40;2.30;;;;;;;;;;4885725;29;20059;-82
2023/06/20 11:00:57;;;;;;;3.47;3.15;;;;;;;;;;4898242;29;20515;-84
2023/06/20 11:03:25;;;;;;;2.72;2.63;;;;;;;;;;4895474;29;20055;-83
2023/06/20 11:05:54;;;;;;;3.00;2.80;;;;;;;;;;4897758;29;20099;-83
2023/06/20 11:08:22;;;;;;;2.60;2.40;;;;;;;;;;4914006;29;20088;-83
2023/06/20 11:10:49;;;;;;;2.50;2.40;;;;;;;;;;4912772;29;20057;-83
2023/06/20 11:13:16;;;;;;;2.58;2.47;;;;;;;;;;4896292;29;20072;-84
2023/06/20 11:15:44;;;;;;;2.88;2.20;;;;;;;;;;4889858;29;20047;-83
2023/06/20 11:18:11;;;;;;;2.25;2.15;;;;;;;;;;4895884;29;20112;-83
2023/06/20 11:20:40;;;;;;;2.67;2.58;;;;;;;;;;4899650;29;20359;-83
2023/06/20 11:23:08;;;;;;;2.50;2.40;;;;;;;;;;4897710;29;20117;-82
2023/06/20 11:25:36;;;;;;;2.65;2.45;;;;;;;;;;4898442;29;20041;-83
2023/06/20 11:28:07;;;;;;;2.70;2.60;;;;;;;;;;4897540;29;20048;-83
2023/06/20 11:30:36;;;;;;;2.40;2.30;;;;;;;;;;4895900;29;20060;-82
2023/06/20 11:33:07;;;;;;;2.40;2.30;;;;;;;;;;4897393;29;20044;-83
2023/06/20 11:35:41;;;;;;;2.33;2.22;;;;;;;;;;4897514;29;20139;-83
2023/06/20 11:38:10;;;;;;;2.03;1.95;;;;;;;;;;4897781;29;20101;-83
2023/06/20 11:40:38;;;;;;;2.22;2.13;;;;;;;;;;4890489;29;20127;-83
2023/06/20 11:43:06;;;;;;;2.05;1.95;;;;;;;;;;4891966;29;20048;-83
2023/06/20 11:45:34;;;;;;;2.53;2.42;;;;;;;;;;4896095;29;20495;-83
2023/06/20 11:48:09;;;;;;;2.20;2.10;;;;;;;;;;4896386;29;20048;-82
2023/06/20 11:50:36;;;;;;;2.40;2.30;;;;;;;;;;4898224;29;20060;-84
2023/06/20 11:53:04;;;;;;;2.10;2.00;;;;;;;;;;4894784;29;20043;-84
2023/06/20 11:55:44;;;;;;;1.80;1.70;;;;;;;;;;4890187;29;20077;-83
2023/06/20 11:58:11;;;;;;;1.63;1.63;;;;;;;;;;4897580;29;20519;-82
2023/06/20 12:00:39;;;;;;;1.77;1.77;;;;;;;;;;4894797;29;20112;-81
2023/06/20 12:03:14;;;;;;;2.17;2.08;;;;;;;;;;4896190;29;20049;-83
2023/06/20 12:05:41;;;;;;;1.55;1.52;;;;;;;;;;4914527;29;20100;-83
2023/06/20 12:08:09;;;;;;;1.80;1.75;;;;;;;;;;4897078;29;20482;-81
2023/06/20 12:11:00;;;;;;;3.28;1.85;;;;;;;;;;4892559;29;20071;-83
2023/06/20 12:13:27;;;;;;;1.52;1.52;;;;;;;;;;4894036;29;20127;-83
2023/06/20 12:15:56;;;;;;;1.50;1.45;;;;;;;;;;4896498;29;20040;-83
2023/06/20 12:18:24;;;;;;;1.52;1.42;;;;;;;;;;4900521;29;20071;-82
2023/06/20 12:20:52;;;;;;;1.70;1.60;;;;;;;;;;4902983;29;20055;-83
2023/06/20 12:23:31;;;;;;;1.80;1.70;;;;;;;;;;4908971;29;20051;-83
2023/06/20 12:26:00;;;;;;;1.63;1.63;;;;;;;;;;4903758;29;20666;-83
2023/06/20 12:28:27;;;;;;;1.90;1.80;;;;;;;;;;4896166;29;20052;-82
2023/06/20 12:30:54;;;;;;;1.50;1.40;;;;;;;;;;4895622;29;20124;-83
2023/06/20 12:33:22;;;;;;;2.10;2.00;;;;;;;;;;4895253;29;20041;-83
2023/06/20 12:35:49;;;;;;;1.40;1.40;;;;;;;;;;4895187;29;20056;-83
2023/06/20 12:38:16;;;;;;;1.40;1.40;;;;;;;;;;4892055;29;20096;-83
2023/06/20 12:40:45;;;;;;;1.80;1.70;;;;;;;;;;4895692;29;20128;-83
2023/06/20 12:43:14;;;;;;;1.30;1.30;;;;;;;;;;4895259;29;20053;-83
2023/06/20 12:45:42;;;;;;;1.40;1.40;;;;;;;;;;4895775;29;20071;-84
2023/06/20 12:48:10;;;;;;;1.60;1.60;;;;;;;;;;4909589;29;20064;-83
2023/06/20 12:50:37;;;;;;;1.50;1.50;;;;;;;;;;4894980;29;20077;-83
2023/06/20 12:53:05;;;;;;;1.60;1.50;;;;;;;;;;4893752;29;20056;-83
2023/06/20 12:55:32;;;;;;;1.20;1.20;;;;;;;;;;4894028;29;20478;-82
2023/06/20 12:57:59;;;;;;;1.27;1.27;;;;;;;;;;4894002;29;20049;-83
2023/06/20 13:00:30;;;;;;;1.27;1.17;;;;;;;;;;4894028;29;20041;-83
2023/06/20 13:02:59;;;;;;;1.15;1.15;;;;;;;;;;4894125;29;20112;-83
2023/06/20 13:05:27;;;;;;;1.17;1.17;;;;;;;;;;4894005;29;20058;-82
2023/06/20 13:07:54;;;;;;;1.40;1.40;;;;;;;;;;4894055;29;20046;-83
2023/06/20 13:10:22;;;;;;;1.40;1.40;;;;;;;;;;4892835;29;20158;-82
2023/06/20 13:12:51;;;;;;;1.40;1.40;;;;;;;;;;4894207;29;20052;-83
2023/06/20 13:15:24;;;;;;;1.58;1.50;;;;;;;;;;4894470;29;20064;-84
2023/06/20 13:17:56;;;;;;;1.40;1.40;;;;;;;;;;4894804;29;20440;-83
2023/06/20 13:20:26;;;;;;;1.50;1.50;;;;;;;;;;4893900;29;20059;-83
2023/06/20 13:22:55;;;;;;;1.20;1.20;;;;;;;;;;4892697;29;20052;-83
2023/06/20 13:25:23;;;;;;;1.08;1.08;;;;;;;;;;4894409;29;20048;-83
2023/06/20 13:27:50;;;;;;;1.33;1.33;;;;;;;;;;4896316;29;20052;-83
2023/06/20 13:30:18;;;;;;;1.40;1.40;;;;;;;;;;4895108;29;20052;-84
2023/06/20 13:32:46;;;;;;;1.67;1.63;;;;;;;;;;4918993;29;20059;-83
2023/06/20 13:35:14;;;;;;;1.27;1.20;;;;;;;;;;4895258;29;20053;-83
2023/06/20 13:37:42;;;;;;;1.60;1.50;;;;;;;;;;4895014;29;20059;-83
2023/06/20 13:40:12;;;;;;;1.35;1.30;;;;;;;;;;4895719;29;20069;-84
2023/06/20 13:42:42;;;;;;;1.20;1.20;;;;;;;;;;4899695;29;20052;-84
2023/06/20 13:45:09;;;;;;;;;;;;;;;;;;4897483;29;20084;-84
2023/06/20 13:47:37;;;;;;;1.55;1.50;;;;;;;;;;4896103;29;20313;-83
2023/06/20 13:50:05;;;;;;;1.50;1.40;;;;;;;;;;4895563;29;20506;-84
2023/06/20 13:52:33;;;;;;;1.40;1.30;;;;;;;;;;4895126;29;20059;-83
2023/06/20 13:55:01;;;;;;;1.60;1.50;;;;;;;;;;4894477;29;20053;-84
2023/06/20 13:57:28;;;;;;;1.60;1.50;;;;;;;;;;4886521;29;20091;-84
2023/06/20 13:59:59;;;;;;;1.30;1.30;;;;;;;;;;4894435;29;20124;-83
2023/06/20 14:02:27;;;;;;;1.20;1.20;;;;;;;;;;4894880;29;20055;-83
2023/06/20 14:04:55;;;;;;;1.60;1.50;;;;;;;;;;4894700;29;20066;-83
2023/06/20 14:07:27;;;;;;;1.40;1.40;;;;;;;;;;4894529;29;20381;-83
2023/06/20 14:09:54;;;;;;;1.33;1.33;;;;;;;;;;4894200;29;20132;-83
2023/06/20 14:12:22;;;;;;;1.30;1.30;;;;;;;;;;4900462;29;20044;-82
2023/06/20 14:14:49;;;;;;;1.33;1.33;;;;;;;;;;4896213;29;20100;-83
2023/06/20 14:17:17;;;;;;;1.30;1.30;;;;;;;;;;4895836;29;20045;-83
2023/06/20 14:19:45;;;;;;;1.20;1.20;;;;;;;;;;4895740;29;20098;-83
2023/06/20 14:22:13;;;;;;;1.33;1.23;;;;;;;;;;4896400;29;20676;-82
2023/06/20 14:24:40;;;;;;;1.30;1.30;;;;;;;;;;4894662;29;20069;-83
2023/06/20 14:27:08;;;;;;;1.20;1.20;;;;;;;;;;4901740;29;20056;-83
2023/06/20 14:29:36;;;;;;;1.40;1.30;;;;;;;;;;4889465;29;20045;-84
2023/06/20 14:32:04;;;;;;;1.25;1.25;;;;;;;;;;4893655;29;20519;-83
2023/06/20 14:34:31;;;;;;;1.55;1.05;;;;;;;;;;4892314;29;20045;-82
2023/06/20 14:37:01;;;;;;;1.08;1.08;;;;;;;;;;4887698;29;20049;-84
2023/06/20 14:39:28;;;;;;;1.10;1.10;;;;;;;;;;4889444;29;20157;-83
2023/06/20 14:41:55;;;;;;;1.60;1.50;;;;;;;;;;4889334;29;20044;-83
2023/06/20 14:44:23;;;;;;;1.50;1.40;;;;;;;;;;4887777;29;20056;-83
2023/06/20 14:46:51;;;;;;;1.30;1.20;;;;;;;;;;4894102;29;20722;-83
2023/06/20 14:49:18;;;;;;;1.40;1.40;;;;;;;;;;4896400;29;20090;-83
2023/06/20 14:51:49;;;;;;;1.85;1.20;;;;;;;;;;4909102;29;20060;-83
2023/06/20 14:54:17;;;;;;;1.10;1.10;;;;;;;;;;4892513;29;20041;-83